Latest Weather Observations for Norah Head

IDN60801

Issued at 5:52 am EST Thursday 19 September 2019 (issued every 10 minutes, with the page automatically refreshed every 10 minutes)

About weather observations | Map of weather stations | Latest weather observations for NSW | Other Formats
Station Details ID: 061366 Name: NORAH HEAD AWS Lat: -33.28 Lon: 151.58 Height: 18.8 m
Data from the previous 72 hours. | See also: Recent months at Norah Head
Date/Time
EST
Temp
°C
App
Temp
°C
Dew
Point
°C
Rel
Hum
%
Delta-T
°C
Wind Press
QNH
hPa
Press
MSL
hPa
Rain since
9am
mm
Dir  Spd
km/h
Gust
km/h
Spd
kts
Gust
kts
19/05:30am 15.3 16.3 15.3 100 0.0 N 4 7 2 4 1025.8 1025.8 8.2
19/05:00am 15.1 15.0 14.9 99 0.1 W 9 13 5 7 1025.4 1025.4 4.8
19/04:30am 15.1 15.3 14.8 98 0.2 WNW 7 13 4 7 1024.8 1024.7 4.6
19/04:00am 15.2 15.8 15.2 100 0.0 W 6 13 3 7 1024.6 1024.5 4.6
19/03:30am 15.2 15.8 15.2 100 0.0 NW 6 11 3 6 1024.5 1024.4 4.4
19/03:00am 15.1 15.1 15.1 100 0.0 NW 9 17 5 9 1024.3 1024.2 4.4
19/02:30am 15.3 12.9 15.3 100 0.0 NNW 22 28 12 15 1024.1 1024.0 4.4
19/02:00am 15.5 14.1 15.5 100 0.0 NNE 17 24 9 13 1024.4 1024.3 4.0
19/01:30am 15.5 16.6 15.5 100 0.0 WNW 4 9 2 5 1024.2 1024.1 3.4
19/01:00am 15.7 16.3 15.7 100 0.0 WNW 7 13 4 7 1024.1 1024.0 3.4
19/12:30am 16.4 17.8 16.4 100 0.0 SSE 4 9 2 5 1024.3 1024.2 3.4
19/12:00am 16.4 16.8 16.4 100 0.0 S 9 15 5 8 1024.4 1024.3 3.4
 
Date/Time
EST
Temp
°C
App
Temp
°C
Dew
Point
°C
Rel
Hum
%
Delta-T
°C
Wind Press
QNH
hPa
Press
MSL
hPa
Rain since
9am
mm
Dir  Spd
km/h
Gust
km/h
Spd
kts
Gust
kts
18/11:30pm 16.9 17.2 16.9 100 0.0 SSW 11 15 6 8 1024.5 1024.4 3.4
18/11:00pm 17.0 17.3 17.0 100 0.0 SSW 11 15 6 8 1024.8 1024.7 3.4
18/10:30pm 17.0 17.3 17.0 100 0.0 SSW 11 13 6 7 1024.9 1024.9 3.4
18/10:00pm 17.1 17.1 17.1 100 0.0 SSW 13 15 7 8 1024.9 1024.9 3.4
18/09:30pm 17.1 17.1 17.1 100 0.0 SSW 13 17 7 9 1024.9 1024.9 3.4
18/09:00pm 17.1 17.1 17.1 100 0.0 SSW 13 17 7 9 1024.8 1024.7 3.4
18/08:30pm 17.1 17.1 17.1 100 0.0 SSW 13 17 7 9 1024.8 1024.7 3.4
18/08:00pm 17.2 18.0 17.2 100 0.0 SSW 9 13 5 7 1024.9 1024.9 3.4
18/07:30pm 17.1 17.4 17.1 100 0.0 SSW 11 13 6 7 1024.7 1024.6 3.4
18/07:00pm 17.1 17.3 16.8 98 0.2 SSW 11 15 6 8 1024.5 1024.4 3.4
18/06:30pm 17.2 17.0 16.7 97 0.3 S 13 13 7 7 1024.3 1024.2 3.4
18/06:00pm 17.3 17.4 16.5 95 0.5 S 11 13 6 7 1024.1 1024.0 3.4
18/05:30pm 17.7 17.8 16.6 93 0.7 SSE 11 13 6 7 1024.1 1024.0 3.4
18/05:00pm 17.9 17.5 16.2 90 1.0 SSE 13 15 7 8 1023.9 1023.8 3.4
18/04:30pm 18.6 17.4 16.2 86 1.4 SSE 17 19 9 10 1023.4 1023.3 3.4
18/04:00pm 19.0 17.5 16.2 84 1.7 SE 19 20 10 11 1023.1 1023.0 3.4
18/03:30pm 19.4 17.4 16.4 83 1.8 SE 22 24 12 13 1022.9 1022.8 3.4
18/03:00pm 19.4 17.3 16.2 82 1.9 SE 22 28 12 15 1022.8 1022.7 3.4
18/02:30pm 19.8 17.6 16.8 83 1.8 SE 24 28 13 15 1022.7 1022.6 3.4
18/02:00pm 19.6 17.2 16.4 82 1.9 SE 24 28 13 15 1022.8 1022.7 3.4
18/01:30pm 19.6 17.0 16.8 84 1.7 SE 26 30 14 16 1022.7 1022.6 3.4
18/01:00pm 19.2 16.2 16.8 86 1.4 SE 28 32 15 17 1022.8 1022.7 3.4
18/12:30pm 18.7 16.8 16.7 88 1.2 SE 22 28 12 15 1023.1 1023.0 3.4
18/12:00pm 18.9 16.6 16.7 87 1.3 SE 24 28 13 15 1023.2 1023.1 3.4
18/11:30am 18.7 15.9 17.4 92 0.8 ESE 28 32 15 17 1023.2 1023.1 3.4
18/11:00am 17.7 15.7 17.4 98 0.2 ESE 24 30 13 16 1023.3 1023.2 3.4
18/10:30am 17.2 14.0 17.2 100 0.0 SSE 30 35 16 19 1023.4 1023.3 3.4
18/10:00am 16.9 13.2 16.9 100 0.0 SE 32 37 17 20 1023.5 1023.4 3.0
18/09:30am 16.9 12.6 16.9 100 0.0 SSE 35 43 19 23 1023.6 1023.5 1.6
18/09:00am 17.2 12.6 16.2 94 0.6 SSE 35 41 19 22 1023.3 1023.2 39.4
18/08:30am 17.4 12.4 16.1 92 0.8 SSE 37 44 20 24 1023.2 1023.1 38.8
18/08:00am 17.5 13.3 16.2 92 0.8 SSE 33 41 18 22 1023.0 1022.9 38.8
18/07:30am 17.0 12.2 16.7 98 0.2 SSE 37 44 20 24 1022.7 1022.6 38.8
18/07:00am 16.7 9.6 16.1 96 0.4 SSE 48 56 26 30 1022.1 1022.0 38.8
18/06:30am 16.6 10.0 16.3 98 0.2 SSE 46 54 25 29 1021.8 1021.7 38.8
18/06:00am 16.5 7.7 15.7 95 0.5 SSE 56 67 30 36 1021.3 1021.2 38.8
18/05:30am 16.3 7.5 15.5 95 0.5 SSE 56 67 30 36 1020.8 1020.7 38.8
18/05:00am 16.2 7.8 15.6 96 0.3 SSE 54 63 29 34 1020.8 1020.7 38.8
18/04:30am 16.3 8.2 15.3 94 0.6 SSE 52 63 28 34 1020.8 1020.7 38.8
18/04:00am 16.5 8.0 15.4 93 0.6 SSE 54 61 29 33 1020.6 1020.5 38.8
18/03:30am 16.5 7.6 15.2 92 0.8 SSE 56 63 30 34 1020.5 1020.4 38.8
18/03:00am 16.3 7.7 15.0 92 0.7 SSE 54 65 29 35 1020.3 1020.2 38.8
18/02:30am 16.0 7.5 15.4 96 0.3 SSE 54 63 29 34 1020.2 1020.1 38.8
18/02:00am 15.9 6.8 15.3 96 0.3 SSE 57 67 31 36 1020.1 1020.0 38.8
18/01:30am 15.7 6.6 15.2 97 0.3 SSE 57 69 31 37 1020.5 1020.4 38.6
18/01:00am 15.6 6.6 15.0 96 0.3 S 56 65 30 35 1020.6 1020.5 37.2
18/12:30am 15.7 6.6 15.2 97 0.3 SSE 57 69 31 37 1020.8 1020.7 37.2
18/12:00am 15.6 5.9 14.8 95 0.5 SSE 59 72 32 39 1020.5 1020.4 36.8
 
Date/Time
EST
Temp
°C
App
Temp
°C
Dew
Point
°C
Rel
Hum
%
Delta-T
°C
Wind Press
QNH
hPa
Press
MSL
hPa
Rain since
9am
mm
Dir  Spd
km/h
Gust
km/h
Spd
kts
Gust
kts
17/11:30pm 15.6 6.4 15.0 96 0.3 SSE 57 69 31 37 1020.7 1020.6 36.6
17/11:00pm 15.4 6.3 14.8 96 0.3 SSE 56 65 30 35 1020.5 1020.4 36.4
17/10:30pm 15.3 5.3 14.8 97 0.3 SSE 61 70 33 38 1020.6 1020.5 35.6
17/10:00pm 15.5 5.1 14.9 96 0.3 SSE 63 74 34 40 1020.9 1020.8 33.4
17/09:30pm 15.7 5.9 14.4 92 0.7 S 59 69 32 37 1020.8 1020.7 32.0
17/09:00pm 15.8 5.2 14.3 91 0.9 SSE 63 76 34 41 1020.7 1020.6 32.0
17/08:30pm 15.6 4.6 14.3 92 0.7 SSE 65 80 35 43 1020.4 1020.3 32.0
17/08:00pm 15.4 5.3 14.6 95 0.5 SSE 61 72 33 39 1020.4 1020.3 32.0
17/07:30pm 15.3 6.1 14.5 95 0.5 S 56 70 30 38 1020.5 1020.4 32.0
17/07:00pm 15.5 5.4 14.5 94 0.6 S 61 74 33 40 1020.2 1020.1 32.0
17/06:30pm 15.1 4.1 13.1 88 1.1 SSE 63 74 34 40 1019.5 1019.4 31.8
17/06:00pm 15.2 4.4 13.7 91 0.8 SSE 63 76 34 41 1019.3 1019.2 31.8
17/05:30pm 15.1 5.1 13.8 92 0.7 SSE 59 72 32 39 1018.6 1018.5 31.8
17/05:00pm 15.0 5.1 14.0 94 0.6 SSE 59 72 32 39 1018.8 1018.7 31.6
17/04:30pm 15.0 4.8 14.2 95 0.5 SSE 61 72 33 39 1018.4 1018.3 31.6
17/04:00pm 15.1 5.4 14.8 98 0.2 SSE 59 70 32 38 1018.0 1017.9 30.8
17/03:30pm 14.6 4.3 14.1 97 0.3 SSE 61 72 33 39 1017.8 1017.7 30.2
17/03:00pm 15.0 5.4 15.0 100 0.0 S 59 69 32 37 1017.2 1017.1 30.0
17/02:30pm 14.7 4.2 14.7 100 0.0 S 63 76 34 41 1017.3 1017.2 29.8
17/02:20pm 14.7 5.4 14.7 100 0.0 SSE 57 76 31 41 1017.4 1017.3 29.6
17/02:00pm 14.7 7.1 14.7 100 0.0 S 48 57 26 31 1018.2 1018.1 29.2
17/01:30pm 14.5 6.8 14.5 100 0.0 S 48 56 26 30 1018.0 1017.9 26.2
17/01:00pm 14.6 8.7 14.6 100 0.0 S 39 52 21 28 1017.9 1017.8 17.8
17/12:30pm 14.8 8.9 14.8 100 0.0 SSE 39 48 21 26 1017.8 1017.7 10.0
17/12:00pm 14.6 10.4 14.6 100 0.0 SSE 30 44 16 24 1018.3 1018.2 9.4
17/11:56am 14.6 9.4 14.6 100 0.0 S 35 52 19 28 1018.4 1018.3 9.2
17/11:30am 13.2 5.5 13.2 100 0.0 SSW 46 63 25 34 1019.1 1019.0 8.4
17/11:16am 13.1 5.3 13.1 100 0.0 SSW 46 65 25 35 1019.2 1019.1 7.8
17/11:00am 13.3 6.9 13.3 100 0.0 SSW 39 54 21 29 1019.6 1019.5 7.0
17/10:30am 13.3 7.3 13.3 100 0.0 SSW 37 57 20 31 1019.4 1019.3 3.6
17/10:24am 12.7 9.9 12.7 100 0.0 SW 19 56 10 30 1019.6 1019.5 2.8
17/10:00am 10.4 7.7 10.4 100 0.0 WSW 15 24 8 13 1020.1 1020.0 0.6
17/09:30am 10.4 8.1 10.4 100 0.0 SW 13 22 7 12 1020.3 1020.2 0.2
17/09:00am 10.2 7.5 10.2 100 0.0 SW 15 26 8 14 1020.7 1020.6 9.8
17/08:30am 9.6 7.0 9.5 99 0.0 W 13 24 7 13 1021.5 1021.4 8.6
17/08:00am 10.3 7.5 10.1 99 0.1 W 15 24 8 13 1021.3 1021.2 7.4
17/07:30am 12.9 7.5 12.9 100 0.0 S 33 46 18 25 1020.6 1020.5 7.0
17/07:00am 12.6 6.8 12.6 100 0.0 S 35 46 19 25 1020.4 1020.3 6.0
17/06:30am 12.7 7.4 12.5 99 0.1 SSW 32 43 17 23 1020.6 1020.5 4.8
17/06:00am 12.8 7.5 12.5 98 0.2 SSW 32 43 17 23 1020.1 1020.0 3.8
17/05:30am 12.9 6.6 12.4 97 0.3 S 37 46 20 25 1019.7 1019.6 3.6
17/05:00am 12.4 4.9 12.2 99 0.1 S 43 50 23 27 1019.3 1019.2 3.6
17/04:30am 12.9 6.7 12.6 98 0.2 S 37 46 20 25 1019.9 1019.8 2.8
17/04:00am 12.8 6.1 12.3 97 0.3 S 39 50 21 27 1019.9 1019.8 2.6
17/03:30am 13.0 5.4 12.4 96 0.3 S 44 56 24 30 1019.3 1019.2 2.2
17/03:00am 13.4 5.7 12.1 92 0.7 S 44 52 24 28 1019.4 1019.3 0.4
17/02:30am 13.6 5.3 12.5 93 0.6 S 48 59 26 32 1018.9 1018.8 0.2
17/02:00am 13.9 6.3 12.5 91 0.8 S 44 54 24 29 1019.6 1019.5 0.0
17/01:30am 14.3 7.5 13.0 92 0.7 S 41 46 22 25 1020.0 1019.9 0.0
17/01:00am 14.1 7.6 12.8 92 0.7 S 39 52 21 28 1019.7 1019.6 0.0
17/12:30am 15.9 8.5 12.5 80 1.9 S 43 50 23 27 1019.2 1019.1 0.0
17/12:00am 15.9 9.6 12.3 79 2.0 S 37 43 20 23 1020.0 1019.9 0.0
 
Date/Time
EST
Temp
°C
App
Temp
°C
Dew
Point
°C
Rel
Hum
%
Delta-T
°C
Wind Press
QNH
hPa
Press
MSL
hPa
Rain since
9am
mm
Dir  Spd
km/h
Gust
km/h
Spd
kts
Gust
kts
16/11:30pm 16.0 10.2 12.6 80 1.9 S 35 41 19 22 1020.1 1020.0 0.0
16/11:00pm 16.2 10.1 12.9 81 1.8 S 37 43 20 23 1019.9 1019.8 0.0
16/10:30pm 16.1 9.2 12.8 81 1.8 SSE 41 46 22 25 1019.4 1019.3 0.0
16/10:00pm 16.4 9.4 12.6 78 2.1 SSE 41 46 22 25 1019.6 1019.5 0.0
16/09:30pm 16.4 9.9 12.9 80 1.9 SSE 39 46 21 25 1020.1 1020.0 0.0
16/09:00pm 16.5 9.8 13.4 82 1.7 SSE 41 50 22 27 1019.5 1019.4 0.0
16/08:30pm 16.6 10.4 13.7 83 1.6 SSE 39 44 21 24 1019.2 1019.1 0.0
16/08:00pm 16.4 7.9 13.1 81 1.8 S 50 57 27 31 1018.7 1018.6 0.0
16/07:30pm 16.5 8.9 13.6 83 1.6 S 46 56 25 30 1018.8 1018.7 0.0
16/07:00pm 16.6 8.7 13.7 83 1.6 S 48 57 26 31 1018.7 1018.6 0.0
16/06:30pm 16.7 8.4 13.8 83 1.6 S 50 63 27 34 1017.7 1017.6 0.0
16/06:00pm 16.7 8.5 14.2 85 1.4 S 50 59 27 32 1017.4 1017.3 0.0
16/05:30pm 16.9 8.0 14.2 84 1.5 S 54 67 29 36 1016.5 1016.4 0.0
16/05:00pm 17.2 9.0 15.2 88 1.2 S 52 70 28 38 1015.7 1015.6 0.0
16/04:56pm 17.4 9.4 15.6 89 1.1 S 52 70 28 38 1015.3 1015.2 0.0
16/04:30pm 17.8 10.2 15.8 88 1.2 S 50 65 27 35 1014.0 1013.9 0.0
16/04:21pm 18.3 13.2 15.7 85 1.5 SSW 37 56 20 30 1013.8 1013.7 0.0
16/04:00pm 19.1 13.8 15.4 79 2.2 SSW 37 54 20 29 1013.2 1013.1 0.0
16/03:56pm 19.4 16.1 14.0 71 3.1 SSW 24 54 13 29 1013.0 1012.9 0.0
16/03:54pm 20.0 17.9 13.5 66 3.7 S 17 39 9 21 1012.9 1012.8 0.0
16/03:30pm 22.2 20.8 9.7 45 6.8 NNE 7 11 4 6 1012.0 1011.9 0.0
16/03:00pm 22.0 20.4 11.7 52 5.8 NE 11 13 6 7 1012.2 1012.1 0.0
16/02:30pm 23.2 20.6 6.1 33 8.7 NNE 9 13 5 7 1012.4 1012.3 0.0
16/02:00pm 25.6 23.5 5.8 28 10.2 NW 6 9 3 5 1012.6 1012.5 0.0
16/01:30pm 25.9 23.7 5.5 27 10.4 NW 6 11 3 6 1012.9 1012.8 0.0
16/01:00pm 25.4 23.6 7.1 31 9.6 NW 6 11 3 6 1013.1 1013.0 0.0
16/12:30pm 24.2 21.8 8.6 37 8.4 NNW 11 15 6 8 1013.6 1013.5 0.0
16/12:00pm 25.9 22.5 6.0 28 10.3 N 13 15 7 8 1013.9 1013.8 0.0
16/11:30am 26.2 24.0 5.2 26 10.7 NW 6 11 3 6 1014.4 1014.3 0.0
16/11:00am 25.7 22.2 1.1 20 11.6 WNW 9 19 5 10 1014.7 1014.6 0.0
16/10:30am 25.9 22.1 -1.0 17 12.2 WNW 9 22 5 12 1015.1 1015.0 0.0
16/10:00am 26.0 23.0 2.0 21 11.5 WNW 7 24 4 13 1015.3 1015.2 0.0
16/09:30am 24.1 21.8 11.8 46 7.0 N 15 17 8 9 1015.7 1015.6 0.0
16/09:00am 22.1 21.6 10.6 48 6.3 NNW 4 9 2 5 1015.9 1015.8 0.0
16/08:30am 20.4 19.4 9.0 48 6.0 NW 4 9 2 5 1016.1 1016.0 0.0
16/08:00am 20.7 17.7 2.0 29 8.6 WNW 7 13 4 7 1016.2 1016.1 0.0
16/07:30am 16.5 15.1 9.0 61 3.9 NNW 6 11 3 6 1016.2 1016.1 0.0
16/07:00am 15.5 14.0 9.2 66 3.2 NNW 7 9 4 5 1016.3 1016.2 0.0
16/06:30am 14.0 12.5 9.0 72 2.5 NNW 7 9 4 5 1016.3 1016.2 0.0
16/06:00am 13.1 11.7 9.0 76 2.1 NNW 6 9 3 5 1016.3 1016.2 0.0

Other formats

Comma delimited format used in spreadsheet applications
http://www.bom.gov.au/fwo/IDN60801/IDN60801.95770.axf

JavaScript Object Notation format (JSON) in row-major order
http://www.bom.gov.au/fwo/IDN60801/IDN60801.95770.json

Data quality

Most of these data are generated automatically and are frequently updated. Quality checks on data are not normally performed. It is possible for incorrect values to appear. Refer to information at About Latest Weather Observations and please check the disclaimer before using these data.